Time;durP1;ratioP1;P1;durP2;ratioP2;P2;SDS_P1;SDS_P2;PMS_P1;PMS_P2;Temp;Humidity;BMP_temperature;BMP_pressure;BME280_temperature;BME280_humidity;BME280_pressure;Samples;Min_cycle;Max_cycle;Signal;HPM_P1;HPM_P2
2021/04/29 00:00:57;;;;;;;23.30;7.18;;;7.90;99.90;;;;;;5060072;28;20040;-79
2021/04/29 00:03:24;;;;;;;13.30;6.60;;;7.80;99.90;;;;;;5058529;28;20067;-81
2021/04/29 00:05:51;;;;;;;8.77;5.78;;;7.80;99.90;;;;;;5039386;28;20079;-81
2021/04/29 00:08:27;;;;;;;20.00;6.32;;;8.30;99.90;;;;;;5073053;28;20059;-81
2021/04/29 00:10:55;;;;;;;12.27;7.25;;;7.70;99.90;;;;;;5057773;28;20048;-81
2021/04/29 00:13:22;;;;;;;19.70;6.20;;;8.20;99.90;;;;;;5077302;28;20056;-80
2021/04/29 00:15:49;;;;;;;11.05;5.45;;;7.70;99.90;;;;;;5059056;28;20049;-81
2021/04/29 00:18:17;;;;;;;20.35;5.53;;;7.60;99.90;;;;;;5074414;28;20553;-80
2021/04/29 00:20:47;;;;;;;18.77;6.60;;;7.50;99.90;;;;;;5032821;28;20296;-80
2021/04/29 00:23:26;;;;;;;14.30;6.18;;;8.00;99.90;;;;;;5058157;28;20472;-80
2021/04/29 00:26:00;;;;;;;12.45;6.63;;;7.50;99.90;;;;;;5055757;28;20052;-80
2021/04/29 00:28:28;;;;;;;15.90;7.68;;;7.50;99.90;;;;;;5038755;28;20049;-80
2021/04/29 00:30:55;;;;;;;13.60;6.60;;;7.40;99.90;;;;;;5055666;28;20048;-81
2021/04/29 00:33:23;;;;;;;17.33;5.90;;;8.00;99.90;;;;;;5054035;28;20480;-80
2021/04/29 00:35:50;;;;;;;13.95;6.25;;;7.50;99.90;;;;;;5060720;28;20064;-80
2021/04/29 00:38:17;;;;;;;17.95;6.38;;;7.30;99.90;;;;;;5048392;28;20040;-82
2021/04/29 00:40:45;;;;;;;15.98;6.50;;;7.90;99.90;;;;;;5026347;28;20045;-80
2021/04/29 00:43:13;;;;;;;14.95;5.60;;;7.30;99.90;;;;;;5063029;28;20105;-82
2021/04/29 00:45:41;;;;;;;22.70;5.25;;;7.30;99.90;;;;;;5059221;28;20059;-82
2021/04/29 00:48:08;;;;;;;15.57;4.63;;;7.20;99.90;;;;;;5036315;28;20048;-80
2021/04/29 00:50:35;;;;;;;18.75;7.22;;;7.30;99.90;;;;;;5041214;28;20411;-81
2021/04/29 00:53:03;;;;;;;18.00;6.25;;;7.30;99.90;;;;;;5055410;28;20044;-81
2021/04/29 00:55:30;;;;;;;18.40;6.22;;;7.30;99.90;;;;;;5070061;28;20063;-81
2021/04/29 00:57:58;;;;;;;25.90;5.97;;;8.30;99.90;;;;;;5055612;28;20464;-81
2021/04/29 01:00:27;;;;;;;17.63;5.85;;;7.80;99.90;;;;;;5042229;28;20045;-81
2021/04/29 01:02:59;;;;;;;17.30;6.70;;;7.70;99.90;;;;;;5046419;28;20530;-81
2021/04/29 01:05:43;;;;;;;9.63;4.25;;;7.50;99.90;;;;;;5057745;28;20075;-84
2021/04/29 01:08:17;;;;;;;18.77;5.07;;;7.20;99.90;;;;;;5074245;28;20059;-81
2021/04/29 01:10:53;;;;;;;16.15;6.40;;;7.20;99.90;;;;;;5073770;28;20139;-82
2021/04/29 01:13:26;;;;;;;13.13;4.88;;;8.60;99.90;;;;;;5073853;28;20055;-80
2021/04/29 01:15:54;;;;;;;14.88;5.68;;;7.20;99.90;;;;;;5066624;28;20048;-81
2021/04/29 01:18:24;;;;;;;17.77;5.47;;;7.20;99.90;;;;;;5069598;28;20061;-82
2021/04/29 01:21:01;;;;;;;11.50;4.57;;;7.50;99.90;;;;;;5056220;28;20488;-81
2021/04/29 01:23:44;;;;;;;18.23;5.90;;;7.30;99.90;;;;;;5074050;28;20052;-82
2021/04/29 01:26:29;;;;;;;16.27;5.70;;;7.20;99.90;;;;;;5059913;28;20064;-82
2021/04/29 01:28:59;;;;;;;15.88;5.63;;;7.30;99.90;;;;;;5018979;28;20049;-81
2021/04/29 01:31:31;;;;;;;10.98;4.32;;;7.20;99.90;;;;;;5064440;28;20064;-81
2021/04/29 01:34:01;;;;;;;16.00;5.45;;;7.20;99.90;;;;;;5038557;28;20049;-81
2021/04/29 01:36:30;;;;;;;20.27;5.05;;;7.30;99.90;;;;;;5054269;28;20056;-80
2021/04/29 01:39:04;;;;;;;13.38;4.15;;;7.30;99.90;;;;;;5072476;28;20064;-81
2021/04/29 01:41:32;;;;;;;12.95;4.75;;;7.30;99.90;;;;;;5071634;28;20083;-81
2021/04/29 01:44:00;;;;;;;12.18;5.25;;;7.30;99.90;;;;;;5067894;28;20057;-81
2021/04/29 01:46:28;;;;;;;13.15;5.47;;;7.30;99.90;;;;;;5068080;28;20052;-81
2021/04/29 01:48:55;;;;;;;13.55;5.05;;;8.10;99.90;;;;;;5063348;28;20491;-81
2021/04/29 01:51:23;;;;;;;16.50;6.47;;;7.20;99.90;;;;;;5056539;28;20056;-81
2021/04/29 01:53:50;;;;;;;24.70;8.57;;;7.30;99.90;;;;;;5073967;28;20044;-81
2021/04/29 01:56:18;;;;;;;16.17;7.30;;;7.20;99.90;;;;;;5056491;28;20525;-82
2021/04/29 01:58:46;;;;;;;16.15;5.60;;;7.50;99.90;;;;;;5067186;28;20041;-81
2021/04/29 02:01:13;;;;;;;11.40;5.35;;;7.20;99.90;;;;;;5053988;28;20126;-82
2021/04/29 02:03:41;;;;;;;11.82;5.28;;;7.20;99.90;;;;;;5071008;28;20148;-81
2021/04/29 02:06:09;;;;;;;10.45;5.18;;;7.30;99.90;;;;;;5046661;28;20060;-80
2021/04/29 02:08:36;;;;;;;15.65;4.25;;;7.30;99.90;;;;;;5070669;28;20629;-81
2021/04/29 02:11:04;;;;;;;11.80;5.22;;;7.70;99.90;;;;;;5069376;28;20487;-81
2021/04/29 02:13:33;;;;;;;10.95;3.88;;;7.20;99.90;;;;;;5051331;28;20056;-80
2021/04/29 02:16:10;;;;;;;14.13;4.78;;;7.30;99.90;;;;;;5039507;28;20412;-81
2021/04/29 02:18:43;;;;;;;9.52;3.80;;;7.90;99.90;;;;;;5017377;28;20049;-81
2021/04/29 02:21:14;;;;;;;9.95;4.22;;;7.60;99.90;;;;;;5053709;28;20048;-81
2021/04/29 02:23:45;;;;;;;13.45;6.72;;;7.20;99.90;;;;;;5072755;28;20633;-80
2021/04/29 02:26:14;;;;;;;12.63;5.75;;;7.20;99.90;;;;;;5070100;28;20055;-81
2021/04/29 02:28:42;;;;;;;15.73;4.53;;;7.20;99.90;;;;;;5069290;28;20045;-80
2021/04/29 02:31:10;;;;;;;11.63;5.07;;;7.20;99.90;;;;;;5035361;28;20048;-81
2021/04/29 02:33:38;;;;;;;14.02;5.40;;;7.20;99.90;;;;;;5069957;28;20056;-80
2021/04/29 02:36:07;;;;;;;9.40;5.28;;;7.20;99.90;;;;;;5051652;28;20059;-80
2021/04/29 02:38:43;;;;;;;13.45;4.93;;;7.20;99.90;;;;;;5069914;28;20043;-81
2021/04/29 02:41:11;;;;;;;15.05;4.65;;;7.10;99.90;;;;;;5069928;28;20376;-80
2021/04/29 02:43:38;;;;;;;13.48;4.70;;;7.10;99.90;;;;;;5049761;28;20041;-81
2021/04/29 02:46:12;;;;;;;22.10;7.50;;;7.10;99.90;;;;;;5065751;28;20064;-81
2021/04/29 02:48:41;;;;;;;21.67;5.80;;;7.10;99.90;;;;;;5038472;28;20048;-80
2021/04/29 02:51:10;;;;;;;12.55;5.15;;;7.10;99.90;;;;;;5051140;28;20061;-80
2021/04/29 02:53:40;;;;;;;12.68;4.25;;;7.30;99.90;;;;;;5069290;28;20048;-80
2021/04/29 02:56:09;;;;;;;12.25;5.00;;;7.40;99.90;;;;;;5070336;28;20067;-80
2021/04/29 02:58:47;;;;;;;12.93;5.10;;;7.00;99.90;;;;;;5067069;28;20040;-82
2021/04/29 03:01:15;;;;;;;10.75;5.15;;;7.00;99.90;;;;;;5063595;28;20106;-81
2021/04/29 03:03:44;;;;;;;12.13;5.20;;;6.90;99.90;;;;;;5066593;28;20044;-81
2021/04/29 03:06:11;;;;;;;11.15;5.50;;;6.90;99.90;;;;;;4698692;28;10000428;-80
2021/04/29 03:08:40;;;;;;;7.38;4.28;;;6.90;99.90;;;;;;5068160;28;20511;-81
2021/04/29 03:11:08;;;;;;;11.68;5.40;;;6.90;99.90;;;;;;5050068;28;20051;-80
2021/04/29 03:13:35;;;;;;;12.52;4.65;;;6.90;99.90;;;;;;5066988;28;20053;-80
2021/04/29 03:16:03;;;;;;;14.77;4.60;;;6.90;99.90;;;;;;5022878;28;20057;-80
2021/04/29 03:18:30;;;;;;;11.30;4.13;;;6.90;99.90;;;;;;5046960;28;20044;-80
2021/04/29 03:20:58;;;;;;;12.07;4.82;;;6.90;99.90;;;;;;5033672;28;20415;-80
2021/04/29 03:23:25;;;;;;;12.57;4.95;;;6.90;99.90;;;;;;5061036;28;20045;-80
2021/04/29 03:25:52;;;;;;;8.95;4.20;;;6.90;99.90;;;;;;5068317;28;20048;-80
2021/04/29 03:28:20;;;;;;;12.85;5.68;;;6.90;99.90;;;;;;5069225;28;20053;-80
2021/04/29 03:30:50;;;;;;;16.00;5.32;;;6.90;99.90;;;;;;5061928;28;20571;-81
2021/04/29 03:33:17;;;;;;;14.68;4.78;;;6.90;99.90;;;;;;5057555;28;20059;-80
2021/04/29 03:35:45;;;;;;;32.80;7.57;;;7.10;99.90;;;;;;5056369;28;20056;-80
2021/04/29 03:38:12;;;;;;;11.70;4.80;;;6.90;99.90;;;;;;5072369;28;20056;-80
2021/04/29 03:40:39;;;;;;;8.48;4.20;;;7.10;99.90;;;;;;5054262;28;20056;-81
2021/04/29 03:43:07;;;;;;;16.40;4.85;;;6.90;99.90;;;;;;5051242;28;20408;-81
2021/04/29 03:45:34;;;;;;;12.52;6.80;;;6.80;99.90;;;;;;5044939;28;20075;-81
2021/04/29 03:48:02;;;;;;;14.38;5.10;;;6.90;99.90;;;;;;5069591;28;20526;-80
2021/04/29 03:50:29;;;;;;;20.90;5.35;;;6.80;99.90;;;;;;5068536;28;20052;-81
2021/04/29 03:52:57;;;;;;;14.18;4.95;;;7.00;99.90;;;;;;5068543;28;20060;-81
2021/04/29 03:55:24;;;;;;;11.57;5.50;;;6.90;99.90;;;;;;5068753;28;20056;-81
2021/04/29 03:57:51;;;;;;;12.57;5.10;;;6.80;99.90;;;;;;5051252;28;20053;-81
2021/04/29 04:00:19;;;;;;;11.93;5.65;;;6.80;99.90;;;;;;5052501;28;20059;-82
2021/04/29 04:02:46;;;;;;;9.77;4.68;;;6.80;99.90;;;;;;5069114;28;20052;-81
2021/04/29 04:05:13;;;;;;;33.30;5.88;;;6.80;99.90;;;;;;5055030;28;21936;-82
2021/04/29 04:07:40;;;;;;;12.70;7.40;;;6.80;99.90;;;;;;5034978;28;20056;-86
2021/04/29 04:10:08;;;;;;;15.75;4.25;;;6.70;99.90;;;;;;5046813;28;20060;-81
2021/04/29 04:12:36;;;;;;;12.40;4.47;;;6.70;99.90;;;;;;5068240;28;20396;-83
2021/04/29 04:15:04;;;;;;;7.18;4.15;;;6.70;99.90;;;;;;5035312;28;20060;-86
2021/04/29 04:17:31;;;;;;;7.88;4.85;;;6.70;99.90;;;;;;5069214;28;20076;-81
2021/04/29 04:20:19;;;;;;;12.60;3.92;;;6.70;99.90;;;;;;5054029;28;20057;-84
2021/04/29 04:22:46;;;;;;;12.55;5.78;;;6.60;99.90;;;;;;5068542;28;20052;-81
2021/04/29 04:25:13;;;;;;;8.38;4.28;;;6.70;99.90;;;;;;5067740;28;20123;-80
2021/04/29 04:27:41;;;;;;;8.98;4.68;;;6.60;99.90;;;;;;5033654;28;20037;-81
2021/04/29 04:30:09;;;;;;;14.43;4.43;;;6.60;99.90;;;;;;5031783;28;20049;-83
2021/04/29 04:32:36;;;;;;;11.98;3.78;;;6.60;99.90;;;;;;5068488;28;20056;-81
2021/04/29 04:35:06;;;;;;;12.07;4.72;;;6.60;99.90;;;;;;5069109;28;20546;-81
2021/04/29 04:37:33;;;;;;;8.73;4.50;;;6.50;99.90;;;;;;5068661;28;20055;-80
2021/04/29 04:40:00;;;;;;;11.73;3.95;;;6.50;99.90;;;;;;5037831;28;20045;-80
2021/04/29 04:42:27;;;;;;;7.18;3.85;;;6.50;99.90;;;;;;5054109;28;20135;-81
2021/04/29 04:44:54;;;;;;;9.70;5.55;;;6.60;99.90;;;;;;5045167;28;20037;-80
2021/04/29 04:47:22;;;;;;;5.63;3.70;;;6.50;99.90;;;;;;5064248;28;20108;-81
2021/04/29 04:49:49;;;;;;;8.15;4.05;;;6.80;99.90;;;;;;5069613;28;20762;-81
2021/04/29 04:52:18;;;;;;;9.48;4.07;;;6.50;99.90;;;;;;5069412;28;20056;-80
2021/04/29 04:54:47;;;;;;;8.68;3.65;;;6.50;99.90;;;;;;5051680;28;20056;-81
2021/04/29 04:57:15;;;;;;;12.70;5.45;;;6.40;99.90;;;;;;5051368;28;20071;-81
2021/04/29 04:59:43;;;;;;;9.98;5.55;;;6.40;99.90;;;;;;5066587;28;20399;-80
2021/04/29 05:02:10;;;;;;;9.68;4.65;;;6.40;99.90;;;;;;5067959;28;20060;-80
2021/04/29 05:04:38;;;;;;;13.77;5.18;;;6.40;99.90;;;;;;5071400;28;20057;-81
2021/04/29 05:07:07;;;;;;;8.13;4.68;;;6.40;99.90;;;;;;4715381;28;10000075;-84
2021/04/29 05:09:35;;;;;;;12.68;4.22;;;6.40;99.90;;;;;;5070666;28;20056;-80
2021/04/29 05:12:03;;;;;;;10.65;3.95;;;6.40;99.90;;;;;;5052995;28;20053;-81
2021/04/29 05:14:30;;;;;;;14.38;3.83;;;6.30;99.90;;;;;;5043982;28;20488;-85
2021/04/29 05:16:58;;;;;;;6.72;4.30;;;6.30;99.90;;;;;;5067324;28;20048;-84
2021/04/29 05:19:25;;;;;;;11.70;4.65;;;6.30;99.90;;;;;;5069429;28;20056;-80
2021/04/29 05:21:53;;;;;;;11.57;4.80;;;6.30;99.90;;;;;;5051277;28;20048;-80
2021/04/29 05:24:20;;;;;;;8.85;5.60;;;6.30;99.90;;;;;;5068975;28;20599;-81
2021/04/29 05:26:48;;;;;;;14.35;4.15;;;6.20;99.90;;;;;;5068177;28;20511;-81
2021/04/29 05:29:15;;;;;;;9.57;3.75;;;6.20;99.90;;;;;;5050952;28;20048;-80
2021/04/29 05:31:44;;;;;;;12.57;3.97;;;6.20;99.90;;;;;;5051045;28;20051;-80
2021/04/29 05:34:11;;;;;;;11.20;4.30;;;6.20;99.90;;;;;;5050214;28;20048;-80
2021/04/29 05:36:38;;;;;;;11.73;5.13;;;6.20;99.90;;;;;;5050765;28;20056;-82
2021/04/29 05:39:06;;;;;;;12.73;4.07;;;6.20;99.90;;;;;;5050791;28;20060;-80
2021/04/29 05:41:33;;;;;;;9.38;4.55;;;6.20;99.90;;;;;;5068081;28;20048;-81
2021/04/29 05:44:00;;;;;;;9.07;5.07;;;6.20;99.90;;;;;;5042632;28;20091;-79
2021/04/29 05:46:27;;;;;;;8.40;4.63;;;6.20;99.90;;;;;;5063839;28;20495;-81
2021/04/29 05:48:54;;;;;;;8.88;3.97;;;7.00;99.90;;;;;;5050206;28;20052;-81
2021/04/29 05:51:22;;;;;;;5.90;3.70;;;6.10;99.90;;;;;;5067347;28;20060;-80
2021/04/29 05:53:49;;;;;;;16.80;5.65;;;6.10;99.90;;;;;;5050553;28;20045;-81
2021/04/29 05:56:16;;;;;;;13.00;5.72;;;6.00;99.90;;;;;;5067958;28;20079;-81
2021/04/29 05:58:43;;;;;;;9.73;5.80;;;6.10;99.90;;;;;;5059417;28;20045;-82
2021/04/29 06:01:11;;;;;;;10.70;5.68;;;6.10;99.90;;;;;;5061765;28;20052;-81
2021/04/29 06:03:39;;;;;;;11.30;6.07;;;6.10;99.90;;;;;;5067166;28;20059;-81
2021/04/29 06:06:06;;;;;;;11.32;6.45;;;6.90;99.90;;;;;;5067908;28;20077;-80
2021/04/29 06:08:33;;;;;;;13.15;5.05;;;6.10;99.90;;;;;;5066934;28;20071;-82
2021/04/29 06:11:00;;;;;;;10.68;5.43;;;6.10;99.90;;;;;;5041345;28;20056;-80
2021/04/29 06:13:28;;;;;;;11.68;5.78;;;6.10;99.90;;;;;;5064215;28;20079;-80
2021/04/29 06:15:55;;;;;;;13.57;5.30;;;6.10;99.90;;;;;;5066805;28;20044;-80
2021/04/29 06:18:22;;;;;;;11.25;5.45;;;6.10;99.90;;;;;;5071986;28;20076;-80
2021/04/29 06:20:51;;;;;;;11.13;5.10;;;6.10;99.90;;;;;;5075435;28;20068;-79
2021/04/29 06:23:18;;;;;;;14.38;6.55;;;6.10;99.90;;;;;;5072383;28;20512;-79
2021/04/29 06:25:45;;;;;;;16.75;7.18;;;6.10;99.90;;;;;;5036820;28;20048;-80
2021/04/29 06:28:12;;;;;;;12.57;5.78;;;6.60;99.90;;;;;;5073627;28;20052;-80
2021/04/29 06:30:41;;;;;;;14.55;6.90;;;6.50;99.90;;;;;;5073681;28;20075;-80
2021/04/29 06:33:09;;;;;;;11.20;6.00;;;6.20;99.90;;;;;;5052194;28;20059;-80
2021/04/29 06:35:36;;;;;;;15.20;5.97;;;6.20;99.90;;;;;;5069091;28;20056;-80
2021/04/29 06:38:04;;;;;;;13.23;6.53;;;6.20;99.90;;;;;;5050151;28;20056;-80
2021/04/29 06:40:31;;;;;;;12.95;6.20;;;6.30;99.90;;;;;;5056133;28;20052;-82
2021/04/29 06:42:59;;;;;;;20.05;6.55;;;6.30;99.90;;;;;;5066179;28;20044;-80
2021/04/29 06:45:26;;;;;;;10.38;5.53;;;6.30;99.90;;;;;;5066353;28;20057;-80
2021/04/29 06:47:54;;;;;;;14.40;6.57;;;6.60;99.90;;;;;;5068114;28;20056;-80
2021/04/29 06:50:21;;;;;;;10.85;5.70;;;6.40;99.90;;;;;;5048336;28;20052;-80
2021/04/29 06:52:48;;;;;;;11.07;6.20;;;6.40;99.90;;;;;;5066674;28;20052;-80
2021/04/29 06:55:16;;;;;;;9.05;5.22;;;6.50;99.90;;;;;;5047111;28;20575;-80
2021/04/29 06:57:43;;;;;;;18.65;6.25;;;7.30;99.90;;;;;;5031017;28;20052;-80
2021/04/29 07:00:11;;;;;;;11.52;6.72;;;6.60;99.90;;;;;;5062724;28;20503;-80
2021/04/29 07:02:38;;;;;;;12.50;5.05;;;6.60;99.90;;;;;;5037318;28;20526;-79
2021/04/29 07:05:07;;;;;;;10.15;5.85;;;6.70;99.90;;;;;;5049173;28;20049;-78
2021/04/29 07:07:34;;;;;;;8.88;5.63;;;6.80;99.90;;;;;;5051459;28;20075;-82
2021/04/29 07:10:02;;;;;;;11.05;5.80;;;6.80;99.90;;;;;;5065846;28;20056;-82
2021/04/29 07:12:29;;;;;;;7.65;5.30;;;6.90;99.90;;;;;;5067540;28;20048;-82
2021/04/29 07:14:57;;;;;;;12.23;6.05;;;7.00;99.90;;;;;;5068326;28;20056;-83
2021/04/29 07:17:25;;;;;;;11.18;4.97;;;7.10;99.90;;;;;;5069414;28;20056;-83
2021/04/29 07:19:52;;;;;;;14.55;6.50;;;8.00;99.90;;;;;;5036665;28;20055;-82
2021/04/29 07:22:19;;;;;;;13.88;6.03;;;7.10;99.90;;;;;;5044882;28;20388;-82
2021/04/29 07:24:46;;;;;;;14.43;7.40;;;7.10;99.90;;;;;;5073965;28;20048;-82
2021/04/29 07:27:13;;;;;;;14.20;5.93;;;7.20;99.90;;;;;;5055003;28;20075;-82
2021/04/29 07:29:40;;;;;;;11.02;6.18;;;7.30;99.90;;;;;;5044255;28;20053;-84
2021/04/29 07:32:08;;;;;;;14.10;6.40;;;7.40;99.90;;;;;;5051328;28;20056;-82
2021/04/29 07:34:35;;;;;;;9.20;5.55;;;8.50;99.90;;;;;;5070825;28;20670;-84
2021/04/29 07:37:04;;;;;;;16.75;7.30;;;8.00;99.90;;;;;;5051121;28;20045;-82
2021/04/29 07:39:34;;;;;;;13.55;5.97;;;7.60;99.90;;;;;;5070507;28;20048;-82
2021/04/29 07:42:02;;;;;;;9.65;5.32;;;7.60;99.90;;;;;;5057497;28;20067;-82
2021/04/29 07:44:30;;;;;;;11.07;5.65;;;7.80;99.90;;;;;;5076589;28;20067;-82
2021/04/29 07:46:59;;;;;;;9.95;5.72;;;8.30;99.90;;;;;;5038918;28;20052;-82
2021/04/29 07:49:28;;;;;;;10.83;6.37;;;8.00;99.90;;;;;;5073763;28;20056;-82
2021/04/29 07:51:56;;;;;;;8.35;5.93;;;8.10;99.90;;;;;;5055097;28;20044;-82
2021/04/29 07:54:23;;;;;;;9.60;4.28;;;8.20;99.90;;;;;;5052275;28;20063;-81
2021/04/29 07:56:50;;;;;;;12.25;5.70;;;8.20;99.90;;;;;;5070792;28;20045;-82
2021/04/29 07:59:17;;;;;;;10.60;5.78;;;8.50;99.90;;;;;;5053019;28;20056;-81
2021/04/29 08:01:46;;;;;;;12.00;5.85;;;8.30;99.90;;;;;;5054418;28;20053;-81
2021/04/29 08:04:14;;;;;;;8.10;5.32;;;8.60;99.90;;;;;;5072783;28;20056;-81
2021/04/29 08:06:42;;;;;;;10.68;5.13;;;8.30;99.90;;;;;;5069903;28;20049;-82
2021/04/29 08:09:09;;;;;;;8.65;5.28;;;8.40;99.90;;;;;;5048609;28;20067;-82
2021/04/29 08:11:36;;;;;;;13.98;4.70;;;8.40;99.90;;;;;;5049633;28;20045;-81
2021/04/29 08:14:04;;;;;;;11.40;5.10;;;8.60;99.90;;;;;;5060622;28;20056;-82
2021/04/29 08:16:34;;;;;;;10.88;5.13;;;8.50;99.90;;;;;;5070083;28;20053;-82
2021/04/29 08:19:02;;;;;;;11.85;6.47;;;8.50;99.90;;;;;;5035219;28;20056;-82
2021/04/29 08:21:47;;;;;;;8.80;4.47;;;8.60;99.90;;;;;;5050404;28;20049;-82
2021/04/29 08:24:14;;;;;;;8.65;4.90;;;8.70;99.90;;;;;;5054471;28;20041;-82
2021/04/29 08:26:42;;;;;;;8.35;4.95;;;8.70;99.90;;;;;;5071621;28;20063;-82
2021/04/29 08:29:09;;;;;;;9.07;4.97;;;8.70;99.90;;;;;;5069676;28;20380;-81
2021/04/29 08:31:38;;;;;;;23.63;5.22;;;8.60;99.90;;;;;;5067063;28;20052;-82
2021/04/29 08:34:06;;;;;;;4.00;3.55;;;8.90;99.90;;;;;;5070881;28;20549;-83
2021/04/29 08:36:34;;;;;;;9.57;4.25;;;8.80;99.90;;;;;;5070684;28;20550;-82
2021/04/29 08:39:04;;;;;;;9.30;5.07;;;8.90;99.90;;;;;;5070396;28;20052;-82
2021/04/29 08:41:33;;;;;;;9.60;4.40;;;9.10;99.90;;;;;;5070787;28;20063;-82
2021/04/29 08:44:01;;;;;;;11.00;6.55;;;9.20;99.90;;;;;;5036522;28;20057;-82
2021/04/29 08:46:28;;;;;;;6.63;4.40;;;9.30;99.90;;;;;;5035441;28;20048;-82
2021/04/29 08:48:58;;;;;;;11.20;5.25;;;9.40;99.90;;;;;;5071105;28;20404;-82
2021/04/29 08:51:28;;;;;;;7.40;4.00;;;9.60;99.90;;;;;;5066277;28;20044;-82
2021/04/29 08:53:56;;;;;;;12.15;5.25;;;9.70;99.90;;;;;;5074461;28;20056;-82
2021/04/29 08:56:25;;;;;;;9.82;3.95;;;9.70;99.90;;;;;;5074849;28;20075;-82
2021/04/29 08:58:58;;;;;;;7.57;4.30;;;9.90;99.90;;;;;;5052107;28;20063;-82
2021/04/29 09:01:26;;;;;;;9.93;4.05;;;10.00;99.90;;;;;;5069039;28;20063;-81
2021/04/29 09:03:56;;;;;;;5.82;3.85;;;10.10;99.90;;;;;;5071577;28;20053;-82
2021/04/29 09:06:32;;;;;;;6.43;3.60;;;10.10;99.90;;;;;;5072094;28;20056;-82
2021/04/29 09:08:59;;;;;;;8.15;3.10;;;10.20;99.90;;;;;;5070621;28;20048;-82
2021/04/29 09:11:27;;;;;;;8.90;3.42;;;10.40;99.90;;;;;;5069285;28;20056;-82
2021/04/29 09:13:55;;;;;;;8.60;3.67;;;10.60;99.90;;;;;;5067468;28;20057;-83
2021/04/29 09:16:24;;;;;;;13.55;4.05;;;10.70;99.90;;;;;;5054931;28;20515;-81
2021/04/29 09:18:51;;;;;;;7.00;3.22;;;10.90;99.90;;;;;;5053865;28;20052;-82
2021/04/29 09:21:18;;;;;;;7.93;3.28;;;10.90;99.90;;;;;;5071956;28;20063;-82
2021/04/29 09:23:48;;;;;;;7.97;3.53;;;11.00;99.70;;;;;;5069902;28;20240;-82
2021/04/29 09:26:18;;;;;;;6.80;3.15;;;11.10;99.70;;;;;;5072631;28;20060;-82
2021/04/29 09:28:53;;;;;;;7.28;4.38;;;11.20;99.30;;;;;;5056216;28;20071;-82
2021/04/29 09:31:27;;;;;;;7.00;3.70;;;11.30;99.10;;;;;;5053639;28;20045;-82
2021/04/29 09:34:00;;;;;;;8.70;3.47;;;11.20;98.60;;;;;;5049180;28;20052;-82
2021/04/29 09:36:33;;;;;;;4.88;3.10;;;11.20;98.20;;;;;;5055736;28;20044;-82
2021/04/29 09:39:07;;;;;;;11.43;2.72;;;11.10;97.20;;;;;;5077573;28;20047;-82
2021/04/29 09:41:41;;;;;;;9.93;3.40;;;10.90;97.70;;;;;;5074290;28;20511;-81
2021/04/29 09:44:11;;;;;;;7.55;3.72;;;10.80;97.90;;;;;;5073351;28;20308;-81
2021/04/29 09:46:42;;;;;;;6.80;3.72;;;10.80;97.80;;;;;;5072035;28;20049;-82
2021/04/29 09:49:24;;;;;;;7.57;3.72;;;10.70;98.20;;;;;;5071173;28;20483;-82
2021/04/29 09:51:54;;;;;;;6.75;3.80;;;10.70;98.00;;;;;;5069412;28;20044;-82
2021/04/29 09:54:28;;;;;;;8.20;3.47;;;10.70;98.00;;;;;;5051638;28;20052;-82
2021/04/29 09:56:59;;;;;;;10.52;6.57;;;10.80;97.40;;;;;;5052028;28;20033;-82
2021/04/29 09:59:28;;;;;;;;;;;11.00;97.30;;;;;;5066054;28;20057;-82
2021/04/29 10:01:57;;;;;;;5.38;3.25;;;11.20;97.10;;;;;;5070968;28;19924;-82
2021/04/29 10:04:27;;;;;;;4.70;3.25;;;11.40;96.60;;;;;;5033814;28;20488;-83
2021/04/29 10:06:56;;;;;;;3.30;2.88;;;11.50;96.80;;;;;;5069311;28;20499;-82
2021/04/29 10:09:27;;;;;;;4.88;2.92;;;11.60;96.20;;;;;;5034879;28;20040;-82
2021/04/29 10:11:57;;;;;;;5.10;2.90;;;11.40;95.40;;;;;;5052963;28;20059;-82
2021/04/29 10:14:25;;;;;;;2.57;2.37;;;11.50;94.20;;;;;;5069317;28;20055;-82
2021/04/29 10:16:53;;;;;;;2.88;2.55;;;11.50;93.60;;;;;;5048564;28;20056;-81
2021/04/29 10:19:23;;;;;;;6.25;2.83;;;11.40;93.50;;;;;;5045391;28;20049;-82
2021/04/29 10:21:51;;;;;;;5.03;2.75;;;11.40;93.60;;;;;;5053930;28;20048;-82
2021/04/29 10:24:18;;;;;;;7.55;2.42;;;11.50;93.50;;;;;;5066331;28;20360;-82
2021/04/29 10:26:46;;;;;;;5.30;2.10;;;11.50;93.00;;;;;;5053162;28;20056;-82
2021/04/29 10:29:15;;;;;;;12.93;4.00;;;11.50;92.90;;;;;;5036799;28;20044;-83
2021/04/29 10:31:42;;;;;;;4.10;3.05;;;11.50;93.10;;;;;;5052350;28;20044;-82
2021/04/29 10:34:12;;;;;;;9.02;3.60;;;11.80;93.40;;;;;;5068174;28;20052;-82
2021/04/29 10:36:47;;;;;;;10.40;3.00;;;11.70;93.10;;;;;;5067806;28;20616;-83
2021/04/29 10:39:22;;;;;;;6.95;3.03;;;11.60;92.70;;;;;;5066743;28;20052;-83
2021/04/29 10:42:12;;;;;;;4.85;2.88;;;11.60;92.60;;;;;;5056543;28;20048;-82
2021/04/29 10:44:50;;;;;;;4.50;2.63;;;11.60;91.80;;;;;;5071081;28;20051;-82
2021/04/29 10:47:27;;;;;;;8.90;2.90;;;11.70;92.10;;;;;;5036060;28;20048;-83
2021/04/29 10:50:14;;;;;;;7.63;2.75;;;11.70;91.50;;;;;;5049892;28;20056;-82
2021/04/29 10:52:56;;;;;;;8.48;2.83;;;11.80;91.10;;;;;;5069792;28;20059;-82
2021/04/29 10:55:31;;;;;;;4.47;2.80;;;11.70;91.00;;;;;;5073788;28;20055;-82
2021/04/29 10:58:00;;;;;;;8.13;2.85;;;11.60;91.20;;;;;;5053309;28;20064;-83
2021/04/29 11:00:29;;;;;;;7.13;2.55;;;11.60;91.10;;;;;;5048033;28;20056;-83
2021/04/29 11:03:06;;;;;;;2.22;1.75;;;11.50;90.80;;;;;;5072366;28;20048;-82
2021/04/29 11:05:36;;;;;;;3.50;2.08;;;11.50;89.50;;;;;;5049112;28;20123;-82
2021/04/29 11:08:16;;;;;;;5.65;2.40;;;11.40;85.90;;;;;;5043844;28;20048;-82
2021/04/29 11:10:45;;;;;;;3.13;2.27;;;11.30;86.50;;;;;;5064528;28;20491;-82
2021/04/29 11:13:20;;;;;;;5.45;2.28;;;11.30;87.20;;;;;;5063230;28;20051;-82
2021/04/29 11:15:57;;;;;;;3.97;2.85;;;11.30;87.20;;;;;;5063974;28;20064;-82
2021/04/29 11:18:25;;;;;;;3.05;1.92;;;11.20;88.00;;;;;;5066082;28;20059;-81
2021/04/29 11:21:07;;;;;;;4.30;2.97;;;11.30;88.20;;;;;;5066716;28;20773;-82
2021/04/29 11:23:42;;;;;;;2.42;1.95;;;11.30;87.60;;;;;;5066740;28;20040;-82
2021/04/29 11:26:17;;;;;;;2.58;2.10;;;11.30;85.60;;;;;;5066627;28;20047;-81
2021/04/29 11:28:44;;;;;;;3.65;1.85;;;11.30;85.60;;;;;;5068221;28;20044;-82
2021/04/29 11:31:12;;;;;;;3.13;2.10;;;11.40;85.40;;;;;;5034289;28;20370;-82
2021/04/29 11:33:49;;;;;;;2.58;2.00;;;11.50;85.30;;;;;;5073349;28;20510;-82
2021/04/29 11:36:19;;;;;;;5.25;1.85;;;11.50;84.40;;;;;;5054440;28;20063;-85
2021/04/29 11:38:53;;;;;;;8.40;2.15;;;11.60;83.60;;;;;;5065351;28;20053;-81
2021/04/29 11:41:22;;;;;;;3.50;2.00;;;11.70;84.10;;;;;;5070507;28;20488;-85
2021/04/29 11:44:00;;;;;;;3.45;2.42;;;11.80;84.10;;;;;;5012163;28;20048;-82
2021/04/29 11:46:29;;;;;;;5.05;2.50;;;11.90;80.40;;;;;;5068341;28;20487;-81
2021/04/29 11:49:03;;;;;;;3.03;1.98;;;11.90;81.80;;;;;;5066346;28;20049;-81
2021/04/29 11:51:32;;;;;;;12.32;5.50;;;12.00;80.40;;;;;;5058608;28;20048;-82
2021/04/29 11:54:04;;;;;;;10.52;3.10;;;12.00;79.90;;;;;;5050650;28;20098;-82
2021/04/29 11:56:49;;;;;;;4.90;2.17;;;12.00;79.10;;;;;;5058249;28;20056;-81
2021/04/29 11:59:17;;;;;;;4.50;2.05;;;12.00;78.90;;;;;;5060032;28;20394;-89
2021/04/29 12:01:56;;;;;;;4.32;2.17;;;12.20;80.60;;;;;;5037171;28;20056;-81
2021/04/29 12:04:24;;;;;;;11.45;3.75;;;11.90;79.70;;;;;;5056804;28;20053;-84
2021/04/29 12:06:55;;;;;;;;;;;11.90;80.20;;;;;;5034371;28;20590;-81
2021/04/29 12:09:25;;;;;;;3.35;2.15;;;12.00;79.40;;;;;;5052450;28;19925;-81
2021/04/29 12:12:13;;;;;;;4.70;2.65;;;11.90;80.80;;;;;;5046702;28;20350;-82
2021/04/29 12:14:49;;;;;;;7.20;2.85;;;11.90;80.90;;;;;;5039524;28;20053;-84
2021/04/29 12:17:17;;;;;;;6.28;2.50;;;11.90;81.00;;;;;;5048483;28;20068;-83
2021/04/29 12:19:51;;;;;;;4.10;1.92;;;11.90;81.30;;;;;;5046389;28;20068;-83
2021/04/29 12:22:24;;;;;;;7.35;3.15;;;11.90;80.90;;;;;;5048361;28;20071;-83
2021/04/29 12:24:52;;;;;;;5.70;3.80;;;11.90;80.40;;;;;;5043065;28;20052;-82
2021/04/29 12:27:23;;;;;;;4.68;2.75;;;11.90;80.60;;;;;;5049559;28;20041;-81
2021/04/29 12:30:06;;;;;;;4.32;2.92;;;12.00;80.50;;;;;;5057376;28;20064;-81
2021/04/29 12:32:35;;;;;;;3.72;2.13;;;12.00;79.10;;;;;;5049366;28;20045;-82
2021/04/29 12:35:05;;;;;;;7.72;2.55;;;12.10;79.90;;;;;;5049242;28;20067;-81
2021/04/29 12:37:33;;;;;;;2.10;1.90;;;12.20;78.00;;;;;;5049016;28;20061;-87
2021/04/29 12:40:00;;;;;;;5.05;2.00;;;12.20;77.30;;;;;;5050117;28;20088;-83
2021/04/29 12:42:27;;;;;;;4.35;2.55;;;12.30;76.50;;;;;;5046940;28;20511;-81
2021/04/29 12:45:00;;;;;;;9.43;2.85;;;12.30;75.90;;;;;;5042751;28;20504;-85
2021/04/29 12:47:32;;;;;;;12.18;2.75;;;12.30;75.10;;;;;;5033063;28;20060;-83
2021/04/29 12:50:08;;;;;;;3.47;2.07;;;12.40;75.40;;;;;;5045775;28;20053;-83
2021/04/29 12:52:50;;;;;;;3.25;2.30;;;12.50;74.80;;;;;;5042807;28;20759;-82
2021/04/29 12:55:20;;;;;;;3.92;2.40;;;12.60;73.70;;;;;;5051788;28;20083;-82
2021/04/29 12:57:48;;;;;;;10.93;2.40;;;12.80;74.00;;;;;;5047610;28;20049;-82
2021/04/29 13:00:17;;;;;;;11.43;2.28;;;12.90;73.20;;;;;;5047236;28;20052;-81